sensor_id;sensor_type;location;lat;lon;timestamp;temperature;humidity
814;DHT22;389;48.710;9.392;2023-02-28T00:00:34;-0.10;73.60
814;DHT22;389;48.710;9.392;2023-02-28T00:03:01;-0.10;73.90
814;DHT22;389;48.710;9.392;2023-02-28T00:05:27;-0.10;74.10
814;DHT22;389;48.710;9.392;2023-02-28T00:07:54;-0.10;74.30
814;DHT22;389;48.710;9.392;2023-02-28T00:10:30;-0.10;74.40
814;DHT22;389;48.710;9.392;2023-02-28T00:12:59;-0.10;74.60
814;DHT22;389;48.710;9.392;2023-02-28T00:15:25;-0.10;74.70
814;DHT22;389;48.710;9.392;2023-02-28T00:17:51;-0.10;74.80
814;DHT22;389;48.710;9.392;2023-02-28T00:20:17;-0.10;74.90
814;DHT22;389;48.710;9.392;2023-02-28T00:22:45;-0.10;74.80
814;DHT22;389;48.710;9.392;2023-02-28T00:25:14;-0.10;74.70
814;DHT22;389;48.710;9.392;2023-02-28T00:27:40;-0.10;74.70
814;DHT22;389;48.710;9.392;2023-02-28T00:30:08;-0.10;74.70
814;DHT22;389;48.710;9.392;2023-02-28T00:32:34;-0.10;74.70
814;DHT22;389;48.710;9.392;2023-02-28T00:35:00;-0.10;74.70
814;DHT22;389;48.710;9.392;2023-02-28T00:37:27;0.00;74.80
814;DHT22;389;48.710;9.392;2023-02-28T00:39:52;0.10;74.90
814;DHT22;389;48.710;9.392;2023-02-28T00:42:18;0.00;74.90
814;DHT22;389;48.710;9.392;2023-02-28T00:44:44;-0.10;74.90
814;DHT22;389;48.710;9.392;2023-02-28T00:47:09;0.00;75.00
814;DHT22;389;48.710;9.392;2023-02-28T00:49:35;0.00;75.20
814;DHT22;389;48.710;9.392;2023-02-28T00:52:01;0.00;75.30
814;DHT22;389;48.710;9.392;2023-02-28T00:54:27;0.00;75.30
814;DHT22;389;48.710;9.392;2023-02-28T00:56:52;0.00;75.30
814;DHT22;389;48.710;9.392;2023-02-28T00:59:18;0.00;75.30
814;DHT22;389;48.710;9.392;2023-02-28T01:01:46;0.00;75.40
814;DHT22;389;48.710;9.392;2023-02-28T01:04:12;0.00;75.60
814;DHT22;389;48.710;9.392;2023-02-28T01:06:38;0.00;75.70
814;DHT22;389;48.710;9.392;2023-02-28T01:09:05;0.00;75.80
814;DHT22;389;48.710;9.392;2023-02-28T01:11:31;-0.10;75.90
814;DHT22;389;48.710;9.392;2023-02-28T01:13:57;-0.10;76.30
814;DHT22;389;48.710;9.392;2023-02-28T01:16:23;-0.10;76.60
814;DHT22;389;48.710;9.392;2023-02-28T01:18:49;-0.10;76.80
814;DHT22;389;48.710;9.392;2023-02-28T01:21:16;-0.10;77.10
814;DHT22;389;48.710;9.392;2023-02-28T01:23:43;-0.10;77.40
814;DHT22;389;48.710;9.392;2023-02-28T01:26:12;-0.10;77.50
814;DHT22;389;48.710;9.392;2023-02-28T01:28:37;-0.10;77.60
814;DHT22;389;48.710;9.392;2023-02-28T01:31:03;-0.10;77.80
814;DHT22;389;48.710;9.392;2023-02-28T01:33:29;-0.10;77.90
814;DHT22;389;48.710;9.392;2023-02-28T01:36:00;-0.10;78.00
814;DHT22;389;48.710;9.392;2023-02-28T01:38:25;-0.10;78.10
814;DHT22;389;48.710;9.392;2023-02-28T01:40:51;-0.10;78.10
814;DHT22;389;48.710;9.392;2023-02-28T01:45:49;-0.10;78.30
814;DHT22;389;48.710;9.392;2023-02-28T01:48:15;-0.10;78.40
814;DHT22;389;48.710;9.392;2023-02-28T01:50:43;-0.10;78.60
814;DHT22;389;48.710;9.392;2023-02-28T01:53:14;-0.10;78.70
814;DHT22;389;48.710;9.392;2023-02-28T01:55:42;-0.10;78.80
814;DHT22;389;48.710;9.392;2023-02-28T01:58:10;-0.10;78.90
814;DHT22;389;48.710;9.392;2023-02-28T02:00:36;-0.20;79.00
814;DHT22;389;48.710;9.392;2023-02-28T02:03:10;-0.10;79.30
814;DHT22;389;48.710;9.392;2023-02-28T02:05:39;-0.10;79.40
814;DHT22;389;48.710;9.392;2023-02-28T02:08:08;-0.20;79.50
814;DHT22;389;48.710;9.392;2023-02-28T02:10:39;-0.20;79.70
814;DHT22;389;48.710;9.392;2023-02-28T02:22:17;-0.20;80.10
814;DHT22;389;48.710;9.392;2023-02-28T02:25:13;-0.20;80.30
814;DHT22;389;48.710;9.392;2023-02-28T02:28:11;-0.10;80.40
814;DHT22;389;48.710;9.392;2023-02-28T02:33:45;-0.10;80.40
814;DHT22;389;48.710;9.392;2023-02-28T02:36:26;-0.10;80.40
814;DHT22;389;48.710;9.392;2023-02-28T02:39:02;-0.10;80.50
814;DHT22;389;48.710;9.392;2023-02-28T02:41:38;-0.10;80.70
814;DHT22;389;48.710;9.392;2023-02-28T02:46:47;-0.10;81.10
814;DHT22;389;48.710;9.392;2023-02-28T02:49:19;-0.10;81.20
814;DHT22;389;48.710;9.392;2023-02-28T02:51:46;-0.10;81.40
814;DHT22;389;48.710;9.392;2023-02-28T02:54:30;-0.10;81.50
814;DHT22;389;48.710;9.392;2023-02-28T02:57:04;-0.10;81.50
814;DHT22;389;48.710;9.392;2023-02-28T02:59:31;-0.10;81.50
814;DHT22;389;48.710;9.392;2023-02-28T03:02:01;0.00;81.70
814;DHT22;389;48.710;9.392;2023-02-28T03:04:32;0.00;81.60
814;DHT22;389;48.710;9.392;2023-02-28T03:06:59;0.00;81.60
814;DHT22;389;48.710;9.392;2023-02-28T03:09:25;0.00;81.70
814;DHT22;389;48.710;9.392;2023-02-28T03:11:53;0.00;81.60
814;DHT22;389;48.710;9.392;2023-02-28T03:18:04;0.10;81.80
814;DHT22;389;48.710;9.392;2023-02-28T03:23:42;0.00;81.80
814;DHT22;389;48.710;9.392;2023-02-28T03:26:21;0.00;82.00
814;DHT22;389;48.710;9.392;2023-02-28T03:29:02;0.10;82.10
814;DHT22;389;48.710;9.392;2023-02-28T03:34:46;0.10;82.10
814;DHT22;389;48.710;9.392;2023-02-28T03:36:59;0.20;82.30
814;DHT22;389;48.710;9.392;2023-02-28T03:39:31;0.20;82.10
814;DHT22;389;48.710;9.392;2023-02-28T03:42:02;0.20;82.20
814;DHT22;389;48.710;9.392;2023-02-28T03:44:56;0.20;82.10
814;DHT22;389;48.710;9.392;2023-02-28T03:47:41;0.30;82.10
814;DHT22;389;48.710;9.392;2023-02-28T03:50:22;0.30;82.10
814;DHT22;389;48.710;9.392;2023-02-28T03:53:24;0.30;82.00
814;DHT22;389;48.710;9.392;2023-02-28T04:01:14;0.40;82.30
814;DHT22;389;48.710;9.392;2023-02-28T04:03:40;0.40;82.30
814;DHT22;389;48.710;9.392;2023-02-28T04:06:12;0.40;82.40
814;DHT22;389;48.710;9.392;2023-02-28T04:08:38;0.40;82.50
814;DHT22;389;48.710;9.392;2023-02-28T04:11:08;0.50;82.60
814;DHT22;389;48.710;9.392;2023-02-28T04:13:40;0.50;83.10
814;DHT22;389;48.710;9.392;2023-02-28T04:16:09;0.50;82.70
814;DHT22;389;48.710;9.392;2023-02-28T04:18:38;0.50;82.70
814;DHT22;389;48.710;9.392;2023-02-28T04:21:04;0.60;82.80
814;DHT22;389;48.710;9.392;2023-02-28T04:23:30;0.60;82.70
814;DHT22;389;48.710;9.392;2023-02-28T04:25:55;0.60;82.70
814;DHT22;389;48.710;9.392;2023-02-28T04:28:21;0.60;82.70
814;DHT22;389;48.710;9.392;2023-02-28T04:30:47;0.60;82.70
814;DHT22;389;48.710;9.392;2023-02-28T04:33:12;0.60;82.80
814;DHT22;389;48.710;9.392;2023-02-28T04:35:38;0.60;82.90
814;DHT22;389;48.710;9.392;2023-02-28T04:38:03;0.60;82.90
814;DHT22;389;48.710;9.392;2023-02-28T04:40:29;0.60;83.10
814;DHT22;389;48.710;9.392;2023-02-28T04:42:55;0.60;83.10
814;DHT22;389;48.710;9.392;2023-02-28T04:45:20;0.60;83.10
814;DHT22;389;48.710;9.392;2023-02-28T04:47:46;0.60;83.10
814;DHT22;389;48.710;9.392;2023-02-28T04:50:11;0.60;83.20
814;DHT22;389;48.710;9.392;2023-02-28T04:52:37;0.60;83.20
814;DHT22;389;48.710;9.392;2023-02-28T04:55:02;0.60;83.10
814;DHT22;389;48.710;9.392;2023-02-28T04:57:28;0.60;82.90
814;DHT22;389;48.710;9.392;2023-02-28T04:59:55;0.70;83.00
814;DHT22;389;48.710;9.392;2023-02-28T05:02:20;0.80;83.10
814;DHT22;389;48.710;9.392;2023-02-28T05:04:46;0.70;82.90
814;DHT22;389;48.710;9.392;2023-02-28T05:07:12;0.70;82.80
814;DHT22;389;48.710;9.392;2023-02-28T05:09:37;0.70;82.80
814;DHT22;389;48.710;9.392;2023-02-28T05:12:03;0.70;82.80
814;DHT22;389;48.710;9.392;2023-02-28T05:14:28;0.70;82.70
814;DHT22;389;48.710;9.392;2023-02-28T05:16:54;0.70;82.60
814;DHT22;389;48.710;9.392;2023-02-28T05:19:20;0.80;82.60
814;DHT22;389;48.710;9.392;2023-02-28T05:21:51;0.80;82.40
814;DHT22;389;48.710;9.392;2023-02-28T05:24:18;0.80;82.30
814;DHT22;389;48.710;9.392;2023-02-28T05:26:48;0.70;82.20
814;DHT22;389;48.710;9.392;2023-02-28T05:29:15;0.80;82.30
814;DHT22;389;48.710;9.392;2023-02-28T05:31:40;0.80;82.30
814;DHT22;389;48.710;9.392;2023-02-28T05:34:06;0.80;82.20
814;DHT22;389;48.710;9.392;2023-02-28T05:36:32;0.80;82.20
814;DHT22;389;48.710;9.392;2023-02-28T05:38:58;0.80;82.20
814;DHT22;389;48.710;9.392;2023-02-28T05:41:23;0.80;82.10
814;DHT22;389;48.710;9.392;2023-02-28T05:43:49;0.90;82.10
814;DHT22;389;48.710;9.392;2023-02-28T05:46:15;0.90;81.90
814;DHT22;389;48.710;9.392;2023-02-28T05:48:42;0.90;82.00
814;DHT22;389;48.710;9.392;2023-02-28T05:51:08;0.90;81.80
814;DHT22;389;48.710;9.392;2023-02-28T05:53:34;0.90;81.80
814;DHT22;389;48.710;9.392;2023-02-28T05:56:00;0.90;81.80
814;DHT22;389;48.710;9.392;2023-02-28T05:58:26;0.90;81.80
814;DHT22;389;48.710;9.392;2023-02-28T06:00:58;1.00;81.80
814;DHT22;389;48.710;9.392;2023-02-28T06:03:24;1.00;81.70
814;DHT22;389;48.710;9.392;2023-02-28T06:05:50;1.00;81.60
814;DHT22;389;48.710;9.392;2023-02-28T06:08:16;1.00;81.60
814;DHT22;389;48.710;9.392;2023-02-28T06:10:41;1.00;81.70
814;DHT22;389;48.710;9.392;2023-02-28T06:13:07;1.00;81.70
814;DHT22;389;48.710;9.392;2023-02-28T06:15:33;0.90;81.70
814;DHT22;389;48.710;9.392;2023-02-28T06:17:58;1.00;81.90
814;DHT22;389;48.710;9.392;2023-02-28T06:20:25;1.00;81.80
814;DHT22;389;48.710;9.392;2023-02-28T06:22:55;1.00;81.60
814;DHT22;389;48.710;9.392;2023-02-28T06:25:21;1.00;82.30
814;DHT22;389;48.710;9.392;2023-02-28T06:27:47;1.00;81.60
814;DHT22;389;48.710;9.392;2023-02-28T06:30:13;1.00;81.60
814;DHT22;389;48.710;9.392;2023-02-28T06:32:39;1.10;81.80
814;DHT22;389;48.710;9.392;2023-02-28T06:35:05;1.10;81.60
814;DHT22;389;48.710;9.392;2023-02-28T06:37:32;1.00;81.30
814;DHT22;389;48.710;9.392;2023-02-28T06:39:58;1.00;81.40
814;DHT22;389;48.710;9.392;2023-02-28T06:42:24;1.10;81.60
814;DHT22;389;48.710;9.392;2023-02-28T06:44:57;1.10;81.60
814;DHT22;389;48.710;9.392;2023-02-28T06:47:23;1.10;81.50
814;DHT22;389;48.710;9.392;2023-02-28T06:49:49;1.10;81.40
814;DHT22;389;48.710;9.392;2023-02-28T06:52:15;1.10;81.30
814;DHT22;389;48.710;9.392;2023-02-28T06:54:40;1.10;81.20
814;DHT22;389;48.710;9.392;2023-02-28T06:57:06;1.20;81.30
814;DHT22;389;48.710;9.392;2023-02-28T06:59:32;1.20;81.20
814;DHT22;389;48.710;9.392;2023-02-28T07:01:57;1.20;81.10
814;DHT22;389;48.710;9.392;2023-02-28T07:04:23;1.20;81.00
814;DHT22;389;48.710;9.392;2023-02-28T07:06:49;1.30;81.10
814;DHT22;389;48.710;9.392;2023-02-28T07:09:15;1.30;80.90
814;DHT22;389;48.710;9.392;2023-02-28T07:11:41;1.30;80.80
814;DHT22;389;48.710;9.392;2023-02-28T07:14:08;1.40;81.30
814;DHT22;389;48.710;9.392;2023-02-28T07:16:35;1.40;80.80
814;DHT22;389;48.710;9.392;2023-02-28T07:19:00;1.40;80.60
814;DHT22;389;48.710;9.392;2023-02-28T07:21:26;1.40;80.50
814;DHT22;389;48.710;9.392;2023-02-28T07:23:51;1.50;80.50
814;DHT22;389;48.710;9.392;2023-02-28T07:26:18;1.40;80.10
814;DHT22;389;48.710;9.392;2023-02-28T07:28:46;1.50;80.20
814;DHT22;389;48.710;9.392;2023-02-28T07:31:13;1.60;80.50
814;DHT22;389;48.710;9.392;2023-02-28T07:33:43;1.60;80.40
814;DHT22;389;48.710;9.392;2023-02-28T07:36:14;1.60;79.80
814;DHT22;389;48.710;9.392;2023-02-28T07:38:45;1.70;79.70
814;DHT22;389;48.710;9.392;2023-02-28T07:41:13;1.70;79.40
814;DHT22;389;48.710;9.392;2023-02-28T07:43:39;1.70;79.30
814;DHT22;389;48.710;9.392;2023-02-28T07:46:07;1.70;79.40
814;DHT22;389;48.710;9.392;2023-02-28T07:48:33;1.80;79.20
814;DHT22;389;48.710;9.392;2023-02-28T07:50:59;1.80;79.10
814;DHT22;389;48.710;9.392;2023-02-28T07:53:26;1.90;78.90
814;DHT22;389;48.710;9.392;2023-02-28T07:55:58;1.90;78.60
814;DHT22;389;48.710;9.392;2023-02-28T07:58:24;1.90;78.30
814;DHT22;389;48.710;9.392;2023-02-28T08:00:51;2.00;78.10
814;DHT22;389;48.710;9.392;2023-02-28T08:03:18;2.00;78.00
814;DHT22;389;48.710;9.392;2023-02-28T08:05:44;2.00;77.70
814;DHT22;389;48.710;9.392;2023-02-28T08:08:09;2.10;77.50
814;DHT22;389;48.710;9.392;2023-02-28T08:10:35;2.10;77.40
814;DHT22;389;48.710;9.392;2023-02-28T08:13:01;2.10;77.30
814;DHT22;389;48.710;9.392;2023-02-28T08:15:27;2.20;77.40
814;DHT22;389;48.710;9.392;2023-02-28T08:17:52;2.20;77.10
814;DHT22;389;48.710;9.392;2023-02-28T08:20:18;2.20;76.90
814;DHT22;389;48.710;9.392;2023-02-28T08:22:44;2.20;76.80
814;DHT22;389;48.710;9.392;2023-02-28T08:25:10;2.20;76.80
814;DHT22;389;48.710;9.392;2023-02-28T08:27:36;2.30;77.00
814;DHT22;389;48.710;9.392;2023-02-28T08:30:03;2.30;77.00
814;DHT22;389;48.710;9.392;2023-02-28T08:32:28;2.30;76.50
814;DHT22;389;48.710;9.392;2023-02-28T08:34:54;2.40;76.30
814;DHT22;389;48.710;9.392;2023-02-28T08:37:20;2.40;76.30
814;DHT22;389;48.710;9.392;2023-02-28T08:39:45;2.40;76.50
814;DHT22;389;48.710;9.392;2023-02-28T08:42:11;2.50;76.60
814;DHT22;389;48.710;9.392;2023-02-28T08:44:36;2.50;75.50
814;DHT22;389;48.710;9.392;2023-02-28T08:47:02;2.50;75.40
814;DHT22;389;48.710;9.392;2023-02-28T08:49:28;2.60;75.50
814;DHT22;389;48.710;9.392;2023-02-28T08:51:53;2.60;75.10
814;DHT22;389;48.710;9.392;2023-02-28T08:54:20;2.60;74.90
814;DHT22;389;48.710;9.392;2023-02-28T08:56:46;2.70;75.10
814;DHT22;389;48.710;9.392;2023-02-28T08:59:12;2.70;74.30
814;DHT22;389;48.710;9.392;2023-02-28T09:01:38;2.70;74.00
814;DHT22;389;48.710;9.392;2023-02-28T09:04:04;2.70;74.00
814;DHT22;389;48.710;9.392;2023-02-28T09:06:32;2.70;74.20
814;DHT22;389;48.710;9.392;2023-02-28T09:08:58;2.80;74.40
814;DHT22;389;48.710;9.392;2023-02-28T09:11:24;2.90;74.70
814;DHT22;389;48.710;9.392;2023-02-28T09:13:50;3.10;74.60
814;DHT22;389;48.710;9.392;2023-02-28T09:16:16;3.20;74.40
814;DHT22;389;48.710;9.392;2023-02-28T09:18:42;3.20;74.10
814;DHT22;389;48.710;9.392;2023-02-28T09:21:11;3.30;74.10
814;DHT22;389;48.710;9.392;2023-02-28T09:23:39;3.50;73.90
814;DHT22;389;48.710;9.392;2023-02-28T09:26:05;3.60;72.90
814;DHT22;389;48.710;9.392;2023-02-28T09:28:31;3.70;72.70
814;DHT22;389;48.710;9.392;2023-02-28T09:30:57;3.80;72.60
814;DHT22;389;48.710;9.392;2023-02-28T09:33:24;3.80;71.60
814;DHT22;389;48.710;9.392;2023-02-28T09:35:51;3.90;70.90
814;DHT22;389;48.710;9.392;2023-02-28T09:38:17;4.00;70.50
814;DHT22;389;48.710;9.392;2023-02-28T09:40:51;4.00;70.10
814;DHT22;389;48.710;9.392;2023-02-28T09:43:18;4.10;69.70
814;DHT22;389;48.710;9.392;2023-02-28T09:46:18;4.10;69.40
814;DHT22;389;48.710;9.392;2023-02-28T09:48:48;4.10;69.40
814;DHT22;389;48.710;9.392;2023-02-28T09:54:21;4.20;69.50
814;DHT22;389;48.710;9.392;2023-02-28T09:59:40;4.50;69.10
814;DHT22;389;48.710;9.392;2023-02-28T10:02:41;4.50;68.30
814;DHT22;389;48.710;9.392;2023-02-28T10:05:13;4.40;68.00
814;DHT22;389;48.710;9.392;2023-02-28T10:13:12;4.50;68.20
814;DHT22;389;48.710;9.392;2023-02-28T10:15:39;4.50;68.00
814;DHT22;389;48.710;9.392;2023-02-28T10:18:12;4.50;68.10
814;DHT22;389;48.710;9.392;2023-02-28T10:20:40;4.60;68.40
814;DHT22;389;48.710;9.392;2023-02-28T10:26:14;4.90;67.80
814;DHT22;389;48.710;9.392;2023-02-28T10:28:41;5.10;67.70
814;DHT22;389;48.710;9.392;2023-02-28T10:31:17;5.10;67.30
814;DHT22;389;48.710;9.392;2023-02-28T10:33:43;5.20;67.20
814;DHT22;389;48.710;9.392;2023-02-28T10:36:17;5.30;67.20
814;DHT22;389;48.710;9.392;2023-02-28T10:38:43;5.40;66.60
814;DHT22;389;48.710;9.392;2023-02-28T10:41:10;5.50;66.20
814;DHT22;389;48.710;9.392;2023-02-28T10:43:38;5.60;65.60
814;DHT22;389;48.710;9.392;2023-02-28T10:46:09;5.50;65.40
814;DHT22;389;48.710;9.392;2023-02-28T10:48:44;5.40;65.50
814;DHT22;389;48.710;9.392;2023-02-28T10:51:12;5.40;66.20
814;DHT22;389;48.710;9.392;2023-02-28T11:04:02;5.00;66.50
814;DHT22;389;48.710;9.392;2023-02-28T11:06:34;4.90;67.00
814;DHT22;389;48.710;9.392;2023-02-28T11:09:05;4.90;67.40
814;DHT22;389;48.710;9.392;2023-02-28T11:11:45;4.90;67.60
814;DHT22;389;48.710;9.392;2023-02-28T11:14:33;5.00;67.60
814;DHT22;389;48.710;9.392;2023-02-28T11:17:18;5.00;67.40
814;DHT22;389;48.710;9.392;2023-02-28T11:19:46;4.90;67.00
814;DHT22;389;48.710;9.392;2023-02-28T11:22:28;4.80;67.50
814;DHT22;389;48.710;9.392;2023-02-28T11:24:57;4.90;67.90
814;DHT22;389;48.710;9.392;2023-02-28T11:27:47;5.00;68.10
814;DHT22;389;48.710;9.392;2023-02-28T11:30:34;5.10;67.60
814;DHT22;389;48.710;9.392;2023-02-28T11:33:23;5.20;67.10
814;DHT22;389;48.710;9.392;2023-02-28T11:35:48;5.30;67.70
814;DHT22;389;48.710;9.392;2023-02-28T11:38:14;5.50;67.50
814;DHT22;389;48.710;9.392;2023-02-28T11:51:53;6.10;66.10
814;DHT22;389;48.710;9.392;2023-02-28T12:00:03;6.50;64.70
814;DHT22;389;48.710;9.392;2023-02-28T12:13:43;6.50;63.60
814;DHT22;389;48.710;9.392;2023-02-28T12:16:29;6.40;63.40
814;DHT22;389;48.710;9.392;2023-02-28T12:19:24;6.30;63.60
814;DHT22;389;48.710;9.392;2023-02-28T12:27:13;6.10;64.70
814;DHT22;389;48.710;9.392;2023-02-28T12:32:23;6.00;65.10
814;DHT22;389;48.710;9.392;2023-02-28T12:35:21;6.00;65.20
814;DHT22;389;48.710;9.392;2023-02-28T12:37:59;6.10;64.80
814;DHT22;389;48.710;9.392;2023-02-28T12:40:33;6.10;65.50
814;DHT22;389;48.710;9.392;2023-02-28T12:43:09;6.20;65.10
814;DHT22;389;48.710;9.392;2023-02-28T12:45:43;6.40;65.10
814;DHT22;389;48.710;9.392;2023-02-28T12:48:25;6.50;64.90
814;DHT22;389;48.710;9.392;2023-02-28T12:50:53;6.60;65.10
814;DHT22;389;48.710;9.392;2023-02-28T12:56:19;6.70;64.80
814;DHT22;389;48.710;9.392;2023-02-28T12:58:51;6.80;64.50
814;DHT22;389;48.710;9.392;2023-02-28T13:01:47;6.90;64.30
814;DHT22;389;48.710;9.392;2023-02-28T13:10:06;7.00;64.00
814;DHT22;389;48.710;9.392;2023-02-28T13:12:33;7.00;63.50
814;DHT22;389;48.710;9.392;2023-02-28T13:15:18;7.00;62.90
814;DHT22;389;48.710;9.392;2023-02-28T13:17:49;7.10;63.00
814;DHT22;389;48.710;9.392;2023-02-28T13:20:17;7.20;63.00
814;DHT22;389;48.710;9.392;2023-02-28T13:22:51;7.20;62.90
814;DHT22;389;48.710;9.392;2023-02-28T13:28:00;7.30;62.60
814;DHT22;389;48.710;9.392;2023-02-28T13:33:37;7.40;62.30
814;DHT22;389;48.710;9.392;2023-02-28T13:38:55;7.30;62.40
814;DHT22;389;48.710;9.392;2023-02-28T13:46:38;7.60;62.00
814;DHT22;389;48.710;9.392;2023-02-28T13:49:31;7.60;61.40
814;DHT22;389;48.710;9.392;2023-02-28T14:00:27;7.90;61.00
814;DHT22;389;48.710;9.392;2023-02-28T14:02:45;7.90;60.50
814;DHT22;389;48.710;9.392;2023-02-28T14:05:18;7.90;60.10
814;DHT22;389;48.710;9.392;2023-02-28T14:07:48;7.90;60.40
814;DHT22;389;48.710;9.392;2023-02-28T14:10:25;7.90;60.30
814;DHT22;389;48.710;9.392;2023-02-28T14:12:55;7.80;60.30
814;DHT22;389;48.710;9.392;2023-02-28T14:17:56;7.70;61.00
814;DHT22;389;48.710;9.392;2023-02-28T14:20:27;7.60;60.80
814;DHT22;389;48.710;9.392;2023-02-28T14:25:47;7.60;60.60
814;DHT22;389;48.710;9.392;2023-02-28T14:36:36;7.70;60.60
814;DHT22;389;48.710;9.392;2023-02-28T14:39:22;7.70;61.00
814;DHT22;389;48.710;9.392;2023-02-28T14:41:49;7.70;60.70
814;DHT22;389;48.710;9.392;2023-02-28T14:44:21;7.60;60.70
814;DHT22;389;48.710;9.392;2023-02-28T14:46:53;7.60;60.90
814;DHT22;389;48.710;9.392;2023-02-28T14:49:23;7.60;61.00
814;DHT22;389;48.710;9.392;2023-02-28T14:51:57;7.60;61.00
814;DHT22;389;48.710;9.392;2023-02-28T14:54:27;7.50;61.30
814;DHT22;389;48.710;9.392;2023-02-28T14:56:52;7.50;61.60
814;DHT22;389;48.710;9.392;2023-02-28T14:59:31;7.50;61.40
814;DHT22;389;48.710;9.392;2023-02-28T15:04:40;7.40;61.80
814;DHT22;389;48.710;9.392;2023-02-28T15:07:08;7.30;62.10
814;DHT22;389;48.710;9.392;2023-02-28T15:09:34;7.30;62.10
814;DHT22;389;48.710;9.392;2023-02-28T15:12:00;7.30;62.10
814;DHT22;389;48.710;9.392;2023-02-28T15:14:26;7.30;61.90
814;DHT22;389;48.710;9.392;2023-02-28T15:16:59;7.30;62.00
814;DHT22;389;48.710;9.392;2023-02-28T15:19:29;7.30;62.10
814;DHT22;389;48.710;9.392;2023-02-28T15:24:43;7.30;62.00
814;DHT22;389;48.710;9.392;2023-02-28T15:27:19;7.30;61.90
814;DHT22;389;48.710;9.392;2023-02-28T15:29:48;7.30;62.10
814;DHT22;389;48.710;9.392;2023-02-28T15:32:37;7.30;62.00
814;DHT22;389;48.710;9.392;2023-02-28T15:40:51;7.10;62.70
814;DHT22;389;48.710;9.392;2023-02-28T15:43:38;7.10;62.50
814;DHT22;389;48.710;9.392;2023-02-28T15:46:12;7.10;62.60
814;DHT22;389;48.710;9.392;2023-02-28T15:48:51;7.00;62.70
814;DHT22;389;48.710;9.392;2023-02-28T15:51:20;6.90;62.50
814;DHT22;389;48.710;9.392;2023-02-28T15:53:50;6.90;62.80
814;DHT22;389;48.710;9.392;2023-02-28T15:56:31;6.90;62.80
814;DHT22;389;48.710;9.392;2023-02-28T15:59:03;6.80;62.80
814;DHT22;389;48.710;9.392;2023-02-28T16:01:37;6.70;63.10
814;DHT22;389;48.710;9.392;2023-02-28T16:04:15;6.70;63.50
814;DHT22;389;48.710;9.392;2023-02-28T16:06:42;6.60;63.50
814;DHT22;389;48.710;9.392;2023-02-28T16:09:14;6.60;63.70
814;DHT22;389;48.710;9.392;2023-02-28T16:11:49;6.50;63.90
814;DHT22;389;48.710;9.392;2023-02-28T16:14:18;6.50;64.00
814;DHT22;389;48.710;9.392;2023-02-28T16:16:46;6.40;64.30
814;DHT22;389;48.710;9.392;2023-02-28T16:19:13;6.40;64.70
814;DHT22;389;48.710;9.392;2023-02-28T16:21:38;6.30;64.70
814;DHT22;389;48.710;9.392;2023-02-28T16:24:04;6.40;65.20
814;DHT22;389;48.710;9.392;2023-02-28T16:26:30;6.20;64.80
814;DHT22;389;48.710;9.392;2023-02-28T16:28:55;6.10;65.00
814;DHT22;389;48.710;9.392;2023-02-28T16:31:21;6.10;65.10
814;DHT22;389;48.710;9.392;2023-02-28T16:33:47;6.10;65.20
814;DHT22;389;48.710;9.392;2023-02-28T16:36:16;6.20;65.50
814;DHT22;389;48.710;9.392;2023-02-28T16:38:41;5.90;65.40
814;DHT22;389;48.710;9.392;2023-02-28T16:41:12;5.90;65.80
814;DHT22;389;48.710;9.392;2023-02-28T16:43:41;5.80;66.00
814;DHT22;389;48.710;9.392;2023-02-28T16:46:10;5.80;66.10
814;DHT22;389;48.710;9.392;2023-02-28T16:48:36;5.70;66.20
814;DHT22;389;48.710;9.392;2023-02-28T16:51:02;5.70;66.70
814;DHT22;389;48.710;9.392;2023-02-28T16:53:29;5.60;66.70
814;DHT22;389;48.710;9.392;2023-02-28T16:55:55;5.60;67.10
814;DHT22;389;48.710;9.392;2023-02-28T16:58:21;5.50;67.30
814;DHT22;389;48.710;9.392;2023-02-28T17:00:48;5.50;67.60
814;DHT22;389;48.710;9.392;2023-02-28T17:03:26;5.40;67.60
814;DHT22;389;48.710;9.392;2023-02-28T17:05:52;5.30;67.70
814;DHT22;389;48.710;9.392;2023-02-28T17:08:17;5.20;68.00
814;DHT22;389;48.710;9.392;2023-02-28T17:10:43;5.10;68.70
814;DHT22;389;48.710;9.392;2023-02-28T17:13:09;5.10;68.20
814;DHT22;389;48.710;9.392;2023-02-28T17:15:35;5.00;68.50
814;DHT22;389;48.710;9.392;2023-02-28T17:18:02;5.00;68.80
814;DHT22;389;48.710;9.392;2023-02-28T17:20:27;4.90;68.80
814;DHT22;389;48.710;9.392;2023-02-28T17:22:53;4.80;68.90
814;DHT22;389;48.710;9.392;2023-02-28T17:25:19;4.80;69.10
814;DHT22;389;48.710;9.392;2023-02-28T17:27:46;4.70;69.30
814;DHT22;389;48.710;9.392;2023-02-28T17:30:22;4.60;69.40
814;DHT22;389;48.710;9.392;2023-02-28T17:32:48;4.50;69.70
814;DHT22;389;48.710;9.392;2023-02-28T17:35:14;4.50;70.00
814;DHT22;389;48.710;9.392;2023-02-28T17:37:40;4.50;70.10
814;DHT22;389;48.710;9.392;2023-02-28T17:40:06;4.40;70.10
814;DHT22;389;48.710;9.392;2023-02-28T17:42:36;4.40;70.30
814;DHT22;389;48.710;9.392;2023-02-28T17:45:02;4.30;70.50
814;DHT22;389;48.710;9.392;2023-02-28T17:47:27;4.30;70.60
814;DHT22;389;48.710;9.392;2023-02-28T17:49:53;4.20;70.50
814;DHT22;389;48.710;9.392;2023-02-28T17:52:18;4.20;70.70
814;DHT22;389;48.710;9.392;2023-02-28T17:54:44;4.20;70.70
814;DHT22;389;48.710;9.392;2023-02-28T17:57:14;4.10;70.70
814;DHT22;389;48.710;9.392;2023-02-28T17:59:40;4.10;70.80
814;DHT22;389;48.710;9.392;2023-02-28T18:02:08;4.10;70.90
814;DHT22;389;48.710;9.392;2023-02-28T18:04:40;4.10;71.00
814;DHT22;389;48.710;9.392;2023-02-28T18:07:09;4.10;71.10
814;DHT22;389;48.710;9.392;2023-02-28T18:09:39;4.10;71.10
814;DHT22;389;48.710;9.392;2023-02-28T18:12:05;4.10;71.20
814;DHT22;389;48.710;9.392;2023-02-28T18:14:30;4.00;71.00
814;DHT22;389;48.710;9.392;2023-02-28T18:16:59;4.20;71.30
814;DHT22;389;48.710;9.392;2023-02-28T18:19:28;4.00;71.20
814;DHT22;389;48.710;9.392;2023-02-28T18:21:53;4.10;71.50
814;DHT22;389;48.710;9.392;2023-02-28T18:24:20;3.90;71.60
814;DHT22;389;48.710;9.392;2023-02-28T18:26:47;3.90;71.90
814;DHT22;389;48.710;9.392;2023-02-28T18:29:25;3.80;71.90
814;DHT22;389;48.710;9.392;2023-02-28T18:31:52;3.70;72.10
814;DHT22;389;48.710;9.392;2023-02-28T18:34:18;3.60;72.40
814;DHT22;389;48.710;9.392;2023-02-28T18:36:46;3.50;72.60
814;DHT22;389;48.710;9.392;2023-02-28T18:39:13;3.40;72.90
814;DHT22;389;48.710;9.392;2023-02-28T18:41:39;3.30;73.10
814;DHT22;389;48.710;9.392;2023-02-28T18:44:05;3.20;73.30
814;DHT22;389;48.710;9.392;2023-02-28T18:46:31;3.10;73.60
814;DHT22;389;48.710;9.392;2023-02-28T18:48:57;3.20;74.30
814;DHT22;389;48.710;9.392;2023-02-28T18:51:25;2.90;74.30
814;DHT22;389;48.710;9.392;2023-02-28T18:53:51;2.90;74.50
814;DHT22;389;48.710;9.392;2023-02-28T18:58:45;2.70;75.30
814;DHT22;389;48.710;9.392;2023-02-28T19:01:21;2.70;76.00
814;DHT22;389;48.710;9.392;2023-02-28T19:03:49;2.60;76.00
814;DHT22;389;48.710;9.392;2023-02-28T19:06:16;2.60;76.50
814;DHT22;389;48.710;9.392;2023-02-28T19:08:42;2.60;76.50
814;DHT22;389;48.710;9.392;2023-02-28T19:11:14;2.60;76.50
814;DHT22;389;48.710;9.392;2023-02-28T19:13:40;2.60;76.60
814;DHT22;389;48.710;9.392;2023-02-28T19:16:07;2.60;76.80
814;DHT22;389;48.710;9.392;2023-02-28T19:18:33;2.50;76.90
814;DHT22;389;48.710;9.392;2023-02-28T19:20:59;2.40;77.10
814;DHT22;389;48.710;9.392;2023-02-28T19:23:25;2.40;77.40
814;DHT22;389;48.710;9.392;2023-02-28T19:25:51;2.40;77.60
814;DHT22;389;48.710;9.392;2023-02-28T19:28:17;2.30;77.70
814;DHT22;389;48.710;9.392;2023-02-28T19:30:47;2.20;77.90
814;DHT22;389;48.710;9.392;2023-02-28T19:33:13;2.20;78.20